createdAt,value
2018-08-24T00:01:49.307Z,100578.27
2018-08-24T00:04:17.787Z,100577.17
2018-08-24T00:06:46.272Z,100576.00
2018-08-24T00:09:16.766Z,100571.36
2018-08-24T00:11:45.200Z,100562.27
2018-08-24T00:14:13.671Z,100563.31
2018-08-24T00:16:42.699Z,100558.02
2018-08-24T00:19:13.406Z,100547.36
2018-08-24T00:21:41.968Z,100555.37
2018-08-24T00:24:11.101Z,100555.21
2018-08-24T00:26:39.639Z,100551.26
2018-08-24T00:29:08.609Z,100549.56
2018-08-24T00:31:37.703Z,100541.66
2018-08-24T00:34:06.299Z,100551.65
2018-08-24T00:36:34.756Z,100548.06
2018-08-24T00:39:03.757Z,100555.09
2018-08-24T00:41:32.219Z,100550.47
2018-08-24T00:44:00.713Z,100546.34
2018-08-24T00:46:29.200Z,100543.02
2018-08-24T00:48:57.676Z,100549.00
2018-08-24T00:51:26.242Z,100535.60
2018-08-24T00:53:54.681Z,100539.91
2018-08-24T00:56:23.282Z,100539.61
2018-08-24T00:58:51.743Z,100540.74
2018-08-24T01:01:20.272Z,100541.84
2018-08-24T01:03:48.756Z,100533.97
2018-08-24T01:06:21.361Z,100537.23
2018-08-24T01:08:49.965Z,100537.48
2018-08-24T01:11:18.461Z,100531.47
2018-08-24T01:13:50.792Z,100531.20
2018-08-24T01:16:24.896Z,100522.42
2018-08-24T01:18:53.536Z,100527.27
2018-08-24T01:21:22.000Z,100538.70
2018-08-24T01:23:50.496Z,100534.23
2018-08-24T01:26:23.912Z,100525.48
2018-08-24T01:28:53.042Z,100479.56
2018-08-24T01:31:21.727Z,100525.48
2018-08-24T01:33:50.264Z,100473.90
2018-08-24T01:36:18.775Z,100532.52
2018-08-24T01:38:47.263Z,100534.14
2018-08-24T01:41:15.718Z,100534.59
2018-08-24T01:43:44.226Z,100518.34
2018-08-24T01:46:14.124Z,100530.77
2018-08-24T01:48:42.829Z,100528.30
2018-08-24T01:51:11.317Z,100537.24
2018-08-24T01:53:39.796Z,100527.16
2018-08-24T01:56:08.259Z,100517.53
2018-08-24T01:58:36.915Z,100500.06
2018-08-24T02:01:05.472Z,100507.11
2018-08-24T02:03:34.008Z,100508.52
2018-08-24T02:06:06.452Z,100522.55
2018-08-24T02:08:36.214Z,100524.56
2018-08-24T02:11:08.905Z,100536.61
2018-08-24T02:13:43.005Z,100547.45
2018-08-24T02:16:11.559Z,100540.25
2018-08-24T02:18:45.225Z,100526.21
2018-08-24T02:21:19.217Z,100531.97
2018-08-24T02:23:47.677Z,100540.55
2018-08-24T02:26:16.128Z,100535.24
2018-08-24T02:28:44.630Z,100529.09
2018-08-24T02:31:13.185Z,100539.66
2018-08-24T02:33:41.665Z,100527.23
2018-08-24T02:36:11.008Z,100523.60
2018-08-24T02:38:40.008Z,100520.67
2018-08-24T02:41:08.505Z,100532.39
2018-08-24T02:43:37.119Z,100528.92
2018-08-24T02:46:05.634Z,100527.33
2018-08-24T02:48:34.071Z,100529.83
2018-08-24T02:51:02.603Z,100544.59
2018-08-24T02:53:31.066Z,100537.77
2018-08-24T02:55:59.647Z,100545.68
2018-08-24T02:58:28.311Z,100546.00
2018-08-24T03:00:56.765Z,100550.13
2018-08-24T03:03:25.338Z,100540.85
2018-08-24T03:05:53.816Z,100550.91
2018-08-24T03:08:22.308Z,100551.25
2018-08-24T03:10:50.754Z,100543.77
2018-08-24T03:13:19.216Z,100550.59
2018-08-24T03:15:47.696Z,100555.73
2018-08-24T03:18:16.173Z,100556.54
2018-08-24T03:20:44.660Z,100551.36
2018-08-24T03:23:13.132Z,100560.66
2018-08-24T03:25:41.608Z,100562.37
2018-08-24T03:28:10.100Z,100559.45
2018-08-24T03:30:38.684Z,100563.34
2018-08-24T03:33:07.176Z,100563.88
2018-08-24T03:35:35.762Z,100568.26
2018-08-24T03:38:04.717Z,100564.72
2018-08-24T03:40:33.366Z,100563.73
2018-08-24T03:43:01.845Z,100561.83
2018-08-24T03:45:30.403Z,100561.02
2018-08-24T03:47:58.861Z,100564.09
2018-08-24T03:50:27.307Z,100570.57
2018-08-24T03:52:55.931Z,100570.55
2018-08-24T03:55:24.333Z,100572.19
2018-08-24T03:57:52.823Z,100575.98
2018-08-24T04:00:21.594Z,100572.71
2018-08-24T04:02:50.110Z,100539.44
2018-08-24T04:05:18.583Z,100591.17
2018-08-24T04:07:47.060Z,100586.55
2018-08-24T04:10:30.262Z,100594.71
2018-08-24T04:12:58.804Z,100594.44
2018-08-24T04:15:27.312Z,100592.80
2018-08-24T04:17:55.800Z,100595.06
2018-08-24T04:20:24.750Z,100597.80
2018-08-24T04:22:53.206Z,100600.55
2018-08-24T04:25:21.716Z,100606.87
2018-08-24T04:27:50.329Z,100604.71
2018-08-24T04:30:18.816Z,100612.06
2018-08-24T04:32:47.328Z,100606.98
2018-08-24T04:35:15.838Z,100611.88
2018-08-24T04:37:44.332Z,100617.04
2018-08-24T04:40:12.875Z,100609.19
2018-08-24T04:42:41.368Z,100611.66
2018-08-24T04:45:09.848Z,100611.38
2018-08-24T04:47:38.396Z,100620.05
2018-08-24T04:50:06.936Z,100621.97
2018-08-24T04:52:35.571Z,100622.25
2018-08-24T04:55:04.117Z,100623.05
2018-08-24T04:57:32.636Z,100616.26
2018-08-24T05:00:01.093Z,100612.19
2018-08-24T05:02:29.660Z,100616.81
2018-08-24T05:04:58.103Z,100620.06
2018-08-24T05:07:26.681Z,100628.75
2018-08-24T05:09:55.163Z,100620.88
2018-08-24T05:12:23.668Z,100621.11
2018-08-24T05:14:52.172Z,100626.00
2018-08-24T05:17:20.636Z,100619.73
2018-08-24T05:19:49.238Z,100620.81
2018-08-24T05:22:17.735Z,100626.77
2018-08-24T05:24:46.284Z,100620.84
2018-08-24T05:27:14.718Z,100613.80
2018-08-24T05:29:43.253Z,100617.84
2018-08-24T05:32:11.715Z,100619.99
2018-08-24T05:34:40.206Z,100614.03
2018-08-24T05:37:08.723Z,100612.34
2018-08-24T05:39:37.357Z,100610.42
2018-08-24T05:42:05.906Z,100613.69
2018-08-24T05:44:34.398Z,100609.87
2018-08-24T05:47:03.233Z,100603.69
2018-08-24T05:49:31.684Z,100610.77
2018-08-24T05:52:00.278Z,100611.08
2018-08-24T05:54:28.823Z,100609.74
2018-08-24T05:56:57.372Z,100615.44
2018-08-24T05:59:25.881Z,100612.16
2018-08-24T06:01:55.392Z,100619.22
2018-08-24T06:04:23.989Z,100618.14
2018-08-24T06:06:52.549Z,100617.84
2018-08-24T06:09:21.154Z,100617.58
2018-08-24T06:11:49.640Z,100621.05
2018-08-24T06:14:18.176Z,100625.97
2018-08-24T06:16:52.000Z,100625.66
2018-08-24T06:19:21.300Z,100624.02
2018-08-24T06:21:50.146Z,100631.90
2018-08-24T06:24:18.945Z,100632.45
2018-08-24T06:26:47.447Z,100634.61
2018-08-24T06:29:16.091Z,100638.69
2018-08-24T06:31:44.575Z,100642.47
2018-08-24T06:34:13.272Z,100635.17
2018-08-24T06:36:41.776Z,100642.48
2018-08-24T06:39:12.450Z,100644.69
2018-08-24T06:41:41.113Z,100642.75
2018-08-24T06:44:09.779Z,100648.17
2018-08-24T06:46:38.252Z,100653.06
2018-08-24T06:49:06.792Z,100652.46
2018-08-24T06:51:35.397Z,100645.64
2018-08-24T06:54:04.052Z,100646.95
2018-08-24T06:56:32.480Z,100655.30
2018-08-24T06:59:01.029Z,100656.64
2018-08-24T07:01:29.660Z,100653.11
2018-08-24T07:03:58.846Z,100654.15
2018-08-24T07:06:27.428Z,100657.92
2018-08-24T07:08:55.916Z,100652.91
2018-08-24T07:11:24.503Z,100650.77
2018-08-24T07:13:53.090Z,100661.67
2018-08-24T07:16:21.989Z,100660.06
2018-08-24T07:18:50.532Z,100657.38
2018-08-24T07:21:18.997Z,100666.35
2018-08-24T07:23:47.484Z,100661.95
2018-08-24T07:26:16.014Z,100659.22
2018-08-24T07:28:44.495Z,100667.87
2018-08-24T07:31:13.040Z,100663.18
2018-08-24T07:33:41.531Z,100660.20
2018-08-24T07:36:10.354Z,100667.28
2018-08-24T07:38:38.990Z,100663.39
2018-08-24T07:41:07.526Z,100656.55
2018-08-24T07:43:36.103Z,100664.92
2018-08-24T07:46:04.588Z,100665.23
2018-08-24T07:48:33.040Z,100671.72
2018-08-24T07:51:01.532Z,100665.13
2018-08-24T07:53:30.032Z,100666.16
2018-08-24T07:55:58.584Z,100665.66
2018-08-24T07:58:27.124Z,100673.57
2018-08-24T08:00:55.592Z,100665.89
2018-08-24T08:03:24.156Z,100657.13
2018-08-24T08:05:52.652Z,100664.42
2018-08-24T08:08:21.112Z,100671.42
2018-08-24T08:10:49.958Z,100687.78
2018-08-24T08:13:18.436Z,100683.77
2018-08-24T08:15:46.990Z,100691.50
2018-08-24T08:18:15.613Z,100684.91
2018-08-24T08:20:44.000Z,100671.91
2018-08-24T08:23:12.503Z,100658.22
2018-08-24T08:25:45.086Z,100652.92
2018-08-24T08:28:13.570Z,100676.96
2018-08-24T08:30:42.160Z,100683.52
2018-08-24T08:33:10.892Z,100696.34
2018-08-24T08:35:39.392Z,100697.44
2018-08-24T08:38:09.031Z,100687.41
2018-08-24T08:40:37.601Z,100687.41
2018-08-24T08:43:06.341Z,100689.56
2018-08-24T08:45:34.886Z,100692.53
2018-08-24T08:48:03.446Z,100693.64
2018-08-24T08:50:32.004Z,100698.73
2018-08-24T08:53:00.543Z,100702.59
2018-08-24T08:55:29.288Z,100706.63
2018-08-24T08:57:57.958Z,100699.30
2018-08-24T09:00:26.611Z,100697.27
2018-08-24T09:02:55.334Z,100705.43
2018-08-24T09:05:24.244Z,100707.93
2018-08-24T09:07:54.365Z,100709.38
2018-08-24T09:10:23.193Z,100704.53
2018-08-24T09:12:52.186Z,100712.77
2018-08-24T09:15:20.783Z,100712.77
2018-08-24T09:17:54.794Z,100709.23
2018-08-24T09:20:32.103Z,100710.05
2018-08-24T09:23:10.486Z,100716.89
2018-08-24T09:25:48.595Z,100721.23
2018-08-24T09:28:18.652Z,100717.43
2018-08-24T09:30:56.840Z,100712.38
2018-08-24T09:33:30.384Z,100716.65
2018-08-24T09:36:07.810Z,100714.20
2018-08-24T09:38:39.855Z,100719.61
2018-08-24T09:41:15.059Z,100725.59
2018-08-24T09:43:55.176Z,100728.58
2018-08-24T09:46:29.308Z,100733.94
2018-08-24T09:49:03.280Z,100739.66
2018-08-24T09:51:32.881Z,100737.95
2018-08-24T09:54:04.018Z,100737.48
2018-08-24T09:56:33.426Z,100718.91
2018-08-24T09:59:02.427Z,100738.19
2018-08-24T10:01:36.290Z,100735.78
2018-08-24T10:04:10.119Z,100733.05
2018-08-24T10:06:44.119Z,100727.77
2018-08-24T10:09:13.942Z,100726.90
2018-08-24T10:11:42.521Z,100724.72
2018-08-24T10:14:11.445Z,100727.99
2018-08-24T10:16:40.461Z,100730.53
2018-08-24T10:19:12.367Z,100732.88
2018-08-24T10:21:41.110Z,100732.75
2018-08-24T10:24:09.954Z,100726.95
2018-08-24T10:26:40.138Z,100728.14
2018-08-24T10:29:09.151Z,100727.36
2018-08-24T10:31:37.893Z,100724.92
2018-08-24T10:34:06.676Z,100722.63
2018-08-24T10:36:35.776Z,100729.50
2018-08-24T10:39:06.612Z,100721.68
2018-08-24T10:41:35.268Z,100704.39
2018-08-24T10:44:04.717Z,100712.27
2018-08-24T10:46:33.260Z,100715.27
2018-08-24T10:49:01.954Z,100717.83
2018-08-24T10:51:30.466Z,100715.52
2018-08-24T10:53:59.353Z,100713.84
2018-08-24T10:56:28.006Z,100721.17
2018-08-24T10:58:56.936Z,100722.74
2018-08-24T11:01:25.586Z,100720.20
2018-08-24T11:03:54.131Z,100717.58
2018-08-24T11:06:22.689Z,100714.44
2018-08-24T11:08:51.272Z,100713.26
2018-08-24T11:11:19.774Z,100714.85
2018-08-24T11:13:48.659Z,100731.47
2018-08-24T11:16:17.534Z,100710.09
2018-08-24T11:18:46.192Z,100702.39
2018-08-24T11:21:14.767Z,100728.72
2018-08-24T11:23:43.595Z,100711.95
2018-08-24T11:26:12.282Z,100717.89
2018-08-24T11:28:41.126Z,100713.45
2018-08-24T11:31:10.033Z,100712.41
2018-08-24T11:33:38.728Z,100714.80
2018-08-24T11:36:07.523Z,100718.09
2018-08-24T11:38:36.049Z,100720.87
2018-08-24T11:41:04.696Z,100714.20
2018-08-24T11:43:33.651Z,100719.40
2018-08-24T11:46:02.346Z,100709.35
2018-08-24T11:48:30.876Z,100713.20
2018-08-24T11:51:00.450Z,100710.59
2018-08-24T11:53:29.526Z,100727.09
2018-08-24T11:55:58.149Z,100728.08
2018-08-24T11:58:26.797Z,100723.59
2018-08-24T12:00:55.333Z,100724.25
2018-08-24T12:03:23.919Z,100731.59
2018-08-24T12:05:52.499Z,100723.86
2018-08-24T12:08:21.174Z,100745.95
2018-08-24T12:10:49.681Z,100734.75
2018-08-24T12:13:18.272Z,100738.58
2018-08-24T12:15:46.889Z,100734.45
2018-08-24T12:18:15.451Z,100742.42
2018-08-24T12:20:44.365Z,100726.48
2018-08-24T12:23:12.944Z,100733.24
2018-08-24T12:25:41.781Z,100724.52
2018-08-24T12:28:10.521Z,100726.98
2018-08-24T12:30:39.209Z,100718.19
2018-08-24T12:33:07.808Z,100727.38
2018-08-24T12:35:36.331Z,100732.02
2018-08-24T12:38:05.454Z,100741.11
2018-08-24T12:40:34.041Z,100726.42
2018-08-24T12:43:02.757Z,100738.98
2018-08-24T12:45:31.272Z,100736.23
2018-08-24T12:47:59.820Z,100732.45
2018-08-24T12:50:28.436Z,100742.73
2018-08-24T12:52:57.020Z,100730.84
2018-08-24T12:55:25.710Z,100748.73
2018-08-24T12:57:54.254Z,100749.50
2018-08-24T13:00:22.821Z,100751.41
2018-08-24T13:02:51.480Z,100752.78
2018-08-24T13:05:20.440Z,100761.21
2018-08-24T13:07:49.071Z,100756.35
2018-08-24T13:10:17.664Z,100760.16
2018-08-24T13:12:46.209Z,100754.68
2018-08-24T13:15:14.894Z,100758.48
2018-08-24T13:17:43.601Z,100762.02
2018-08-24T13:20:12.642Z,100765.33
2018-08-24T13:22:41.263Z,100763.58
2018-08-24T13:25:10.157Z,100762.59
2018-08-24T13:27:38.789Z,100759.27
2018-08-24T13:30:07.474Z,100754.14
2018-08-24T13:32:36.076Z,100759.03
2018-08-24T13:35:04.669Z,100758.89
2018-08-24T13:37:33.164Z,100770.59
2018-08-24T13:40:01.724Z,100773.96
2018-08-24T13:42:30.350Z,100809.52
2018-08-24T13:44:58.857Z,100818.16
2018-08-24T13:47:27.705Z,100839.80
2018-08-24T13:49:56.175Z,100846.72
2018-08-24T13:52:24.738Z,100845.77
2018-08-24T13:54:53.381Z,100830.59
2018-08-24T13:57:21.884Z,100826.77
2018-08-24T13:59:50.781Z,100822.58
2018-08-24T14:02:19.465Z,100820.16
2018-08-24T14:04:48.015Z,100824.85
2018-08-24T14:07:16.580Z,100822.42
2018-08-24T14:09:45.084Z,100831.05
2018-08-24T14:12:14.055Z,100825.58
2018-08-24T14:14:44.149Z,100825.30
2018-08-24T14:17:12.827Z,100824.76
2018-08-24T14:19:41.882Z,100817.04
2018-08-24T14:22:10.431Z,100813.05
2018-08-24T14:24:38.991Z,100821.70
2018-08-24T14:27:07.580Z,100815.64
2018-08-24T14:29:36.149Z,100810.13
2018-08-24T14:32:04.768Z,100805.73
2018-08-24T14:34:33.272Z,100807.16
2018-08-24T14:37:02.154Z,100809.09
2018-08-24T14:39:30.944Z,100799.15
2018-08-24T14:41:59.516Z,100799.91
2018-08-24T14:44:28.431Z,100802.28
2018-08-24T14:46:57.017Z,100813.55
2018-08-24T14:49:25.648Z,100804.36
2018-08-24T14:51:54.285Z,100811.28
2018-08-24T14:54:22.868Z,100806.37
2018-08-24T14:56:51.505Z,100802.24
2018-08-24T14:59:20.056Z,100801.20
2018-08-24T15:01:48.613Z,100804.45
2018-08-24T15:04:17.238Z,100796.48
2018-08-24T15:06:45.838Z,100796.87
2018-08-24T15:09:14.423Z,100789.72
2018-08-24T15:11:43.022Z,100782.30
2018-08-24T15:14:11.969Z,100780.73
2018-08-24T15:16:40.524Z,100775.40
2018-08-24T15:19:09.200Z,100775.59
2018-08-24T15:21:37.707Z,100776.73
2018-08-24T15:24:06.385Z,100782.59
2018-08-24T15:26:34.860Z,100781.05
2018-08-24T15:29:03.408Z,100787.31
2018-08-24T15:31:31.959Z,100789.16
2018-08-24T15:34:00.393Z,100783.22
2018-08-24T15:36:28.909Z,100782.83
2018-08-24T15:38:57.412Z,100781.35
2018-08-24T15:41:25.887Z,100785.66
2018-08-24T15:43:54.377Z,100780.77
2018-08-24T15:46:22.867Z,100784.77
2018-08-24T15:48:51.355Z,100778.34
2018-08-24T15:51:19.868Z,100781.70
2018-08-24T15:53:48.333Z,100784.03
2018-08-24T15:56:16.876Z,100774.68
2018-08-24T15:58:45.340Z,100774.61
2018-08-24T16:01:13.798Z,100764.09
2018-08-24T16:03:42.296Z,100769.02
2018-08-24T16:06:10.820Z,100767.39
2018-08-24T16:08:39.336Z,100764.66
2018-08-24T16:11:07.823Z,100765.52
2018-08-24T16:13:36.275Z,100771.05
2018-08-24T16:16:05.128Z,100768.02
2018-08-24T16:18:33.596Z,100762.77
2018-08-24T16:21:02.157Z,100764.89
2018-08-24T16:23:30.807Z,100760.20
2018-08-24T16:25:59.288Z,100767.16
2018-08-24T16:28:28.125Z,100769.36
2018-08-24T16:30:56.818Z,100769.75
2018-08-24T16:33:25.372Z,100767.65
2018-08-24T16:35:55.014Z,100758.41
2018-08-24T16:38:23.671Z,100769.04
2018-08-24T16:40:52.248Z,100764.30
2018-08-24T16:43:20.796Z,100761.05
2018-08-24T16:45:49.843Z,100764.03
2018-08-24T16:48:18.318Z,100760.83
2018-08-24T16:50:46.784Z,100763.34
2018-08-24T16:53:15.265Z,100753.62
2018-08-24T16:55:43.718Z,100755.52
2018-08-24T16:58:12.383Z,100754.39
2018-08-24T17:00:40.784Z,100765.03
2018-08-24T17:03:09.262Z,100765.42
2018-08-24T17:05:37.704Z,100765.97
2018-08-24T17:08:06.495Z,100763.56
2018-08-24T17:10:35.041Z,100765.75
2018-08-24T17:13:03.506Z,100762.78
2018-08-24T17:15:32.038Z,100758.30
2018-08-24T17:18:00.472Z,100765.05
2018-08-24T17:20:29.013Z,100765.38
2018-08-24T17:22:57.480Z,100768.98
2018-08-24T17:25:26.005Z,100767.37
2018-08-24T17:27:54.513Z,100769.56
2018-08-24T17:30:23.016Z,100770.05
2018-08-24T17:32:51.441Z,100764.94
2018-08-24T17:35:19.903Z,100768.24
2018-08-24T17:37:48.373Z,100777.81
2018-08-24T17:40:16.863Z,100774.61
2018-08-24T17:42:45.644Z,100776.57
2018-08-24T17:45:14.120Z,100781.75
2018-08-24T17:47:42.564Z,100778.00
2018-08-24T17:50:11.051Z,100784.23
2018-08-24T17:52:39.551Z,100786.17
2018-08-24T17:55:08.503Z,100784.54
2018-08-24T17:57:37.016Z,100790.02
2018-08-24T18:00:05.611Z,100794.39
2018-08-24T18:02:34.127Z,100789.51
2018-08-24T18:05:02.596Z,100788.97
2018-08-24T18:07:31.120Z,100785.94
2018-08-24T18:09:59.600Z,100784.59
2018-08-24T18:12:28.068Z,100794.41
2018-08-24T18:14:56.706Z,100804.53
2018-08-24T18:17:25.123Z,100833.14
2018-08-24T18:19:54.445Z,100850.92
2018-08-24T18:22:22.930Z,100867.87
2018-08-24T18:24:51.399Z,100872.66
2018-08-24T18:27:19.851Z,100851.72
2018-08-24T18:29:48.319Z,100819.20
2018-08-24T18:32:17.108Z,100812.64
2018-08-24T18:34:45.623Z,100821.72
2018-08-24T18:37:14.148Z,100822.97
2018-08-24T18:39:42.619Z,100822.06
2018-08-24T18:42:11.127Z,100817.75
2018-08-24T18:44:39.616Z,100822.59
2018-08-24T18:47:08.093Z,100821.00
2018-08-24T18:49:36.664Z,100814.58
2018-08-24T18:52:05.227Z,100821.00
2018-08-24T18:54:33.749Z,100817.17
2018-08-24T18:57:02.276Z,100821.98
2018-08-24T18:59:30.703Z,100821.19
2018-08-24T19:01:59.170Z,100823.25
2018-08-24T19:04:27.680Z,100825.33
2018-08-24T19:06:56.158Z,100825.59
2018-08-24T19:09:24.625Z,100829.56
2018-08-24T19:11:58.398Z,100826.91
2018-08-24T19:14:26.861Z,100833.70
2018-08-24T19:16:55.309Z,100832.97
2018-08-24T19:19:28.975Z,100830.53
2018-08-24T19:22:03.533Z,100828.09
2018-08-24T19:24:32.074Z,100832.09
2018-08-24T19:27:00.499Z,100832.43
2018-08-24T19:29:34.363Z,100827.20
2018-08-24T19:32:03.039Z,100830.97
2018-08-24T19:34:31.574Z,100830.69
2018-08-24T19:37:00.050Z,100835.27
2018-08-24T19:39:28.654Z,100832.88
2018-08-24T19:42:02.459Z,100837.44
2018-08-24T19:44:30.916Z,100836.13
2018-08-24T19:46:59.536Z,100838.48
2018-08-24T19:49:28.146Z,100841.27
2018-08-24T19:51:56.536Z,100842.31
2018-08-24T19:54:25.016Z,100841.45
2018-08-24T19:56:53.473Z,100838.97
2018-08-24T19:59:21.969Z,100834.63
2018-08-24T20:01:50.408Z,100842.73
2018-08-24T20:04:19.183Z,100837.05
2018-08-24T20:06:52.951Z,100835.69
2018-08-24T20:09:26.650Z,100846.31
2018-08-24T20:11:55.108Z,100844.72
2018-08-24T20:14:28.873Z,100846.02
2018-08-24T20:17:02.498Z,100849.21
2018-08-24T20:19:31.047Z,100847.80
2018-08-24T20:21:59.501Z,100849.67
2018-08-24T20:24:28.109Z,100854.44
2018-08-24T20:26:56.925Z,100857.63
2018-08-24T20:29:25.353Z,100857.08
2018-08-24T20:31:53.887Z,100858.66
2018-08-24T20:34:22.365Z,100858.14
2018-08-24T20:36:50.798Z,100864.99
2018-08-24T20:39:19.379Z,100868.73
2018-08-24T20:41:47.845Z,100867.56
2018-08-24T20:44:16.276Z,100871.81
2018-08-24T20:46:44.760Z,100876.73
2018-08-24T20:49:13.241Z,100872.65
2018-08-24T20:51:41.768Z,100875.67
2018-08-24T20:54:10.248Z,100872.10
2018-08-24T20:56:38.721Z,100874.77
2018-08-24T20:59:07.242Z,100864.00
2018-08-24T21:01:35.709Z,100866.66
2018-08-24T21:04:04.279Z,100861.77
2018-08-24T21:06:32.714Z,100861.45
2018-08-24T21:09:01.128Z,100864.44
2018-08-24T21:11:29.771Z,100858.75
2018-08-24T21:13:58.250Z,100862.94
2018-08-24T21:16:26.694Z,100864.77
2018-08-24T21:18:55.175Z,100867.36
2018-08-24T21:21:23.657Z,100859.45
2018-08-24T21:23:52.161Z,100865.30
2018-08-24T21:26:20.617Z,100860.11
2018-08-24T21:28:49.137Z,100853.39
2018-08-24T21:31:17.580Z,100850.14
2018-08-24T21:33:46.188Z,100850.08
2018-08-24T21:36:14.690Z,100859.05
2018-08-24T21:38:43.845Z,100854.16
2018-08-24T21:41:12.383Z,100858.25
2018-08-24T21:43:40.857Z,100853.33
2018-08-24T21:46:09.388Z,100854.05
2018-08-24T21:48:38.037Z,100854.26
2018-08-24T21:51:06.572Z,100856.05
2018-08-24T21:53:35.084Z,100808.66
2018-08-24T21:56:03.529Z,100845.92
2018-08-24T21:58:32.003Z,100852.30
2018-08-24T22:01:00.514Z,100842.47
2018-08-24T22:03:29.092Z,100840.28
2018-08-24T22:05:57.602Z,100844.62
2018-08-24T22:08:26.055Z,100843.10
2018-08-24T22:10:54.508Z,100839.30
2018-08-24T22:13:22.984Z,100822.48
2018-08-24T22:15:51.464Z,100830.37
2018-08-24T22:18:19.912Z,100832.27
2018-08-24T22:20:48.369Z,100836.02
2018-08-24T22:23:17.265Z,100832.70
2018-08-24T22:25:45.732Z,100822.02
2018-08-24T22:28:14.176Z,100830.03
2018-08-24T22:30:42.643Z,100828.25
2018-08-24T22:33:11.108Z,100828.81
2018-08-24T22:35:39.659Z,100831.59
2018-08-24T22:38:08.122Z,100821.55
2018-08-24T22:40:36.589Z,100829.47
2018-08-24T22:43:08.188Z,100825.05
2018-08-24T22:45:36.648Z,100821.38
2018-08-24T22:48:05.529Z,100824.19
2018-08-24T22:50:33.975Z,100820.70
2018-08-24T22:53:02.543Z,100821.61
2018-08-24T22:55:31.004Z,100818.62
2018-08-24T22:57:59.447Z,100822.47
2018-08-24T23:00:27.987Z,100816.05
2018-08-24T23:02:56.447Z,100813.02
2018-08-24T23:05:24.904Z,100814.06
2018-08-24T23:07:53.367Z,100809.92
2018-08-24T23:10:21.864Z,100800.55
2018-08-24T23:12:50.320Z,100804.23
2018-08-24T23:15:18.797Z,100799.05
2018-08-24T23:17:47.270Z,100795.56
2018-08-24T23:20:16.083Z,100794.97
2018-08-24T23:22:44.543Z,100796.00
2018-08-24T23:25:13.027Z,100800.79
2018-08-24T23:27:41.500Z,100793.00
2018-08-24T23:30:10.098Z,100796.00
2018-08-24T23:32:38.600Z,100795.76
2018-08-24T23:35:07.108Z,100788.86
2018-08-24T23:37:35.596Z,100786.42
2018-08-24T23:40:04.116Z,100782.98
2018-08-24T23:42:32.601Z,100779.19
2018-08-24T23:45:01.076Z,100777.44
2018-08-24T23:47:29.618Z,100784.67
2018-08-24T23:49:58.135Z,100779.03
2018-08-24T23:52:26.563Z,100777.43
2018-08-24T23:54:55.005Z,100778.08
2018-08-24T23:57:23.476Z,100778.97
2018-08-24T23:59:51.956Z,100775.73
